createdAt,value
2019-05-14T00:01:36.027Z,2.60
2019-05-14T00:04:07.686Z,2.70
2019-05-14T00:06:41.589Z,2.40
2019-05-14T00:09:12.840Z,2.43
2019-05-14T00:11:44.616Z,2.50
2019-05-14T00:14:16.195Z,1.80
2019-05-14T00:16:51.177Z,2.67
2019-05-14T00:19:22.677Z,2.23
2019-05-14T00:21:54.781Z,2.33
2019-05-14T00:24:29.155Z,2.53
2019-05-14T00:27:02.105Z,2.30
2019-05-14T00:29:34.255Z,2.40
2019-05-14T00:32:05.618Z,2.57
2019-05-14T00:34:37.142Z,2.40
2019-05-14T00:37:08.425Z,2.47
2019-05-14T00:39:41.650Z,2.90
2019-05-14T00:42:14.563Z,2.53
2019-05-14T00:44:54.262Z,3.20
2019-05-14T00:47:18.990Z,2.37
2019-05-14T00:49:51.708Z,2.60
2019-05-14T00:52:23.563Z,2.47
2019-05-14T00:54:54.915Z,2.50
2019-05-14T00:57:26.839Z,2.67
2019-05-14T01:00:01.108Z,2.87
2019-05-14T01:02:32.739Z,2.97
2019-05-14T01:05:04.410Z,2.40
2019-05-14T01:07:36.117Z,2.60
2019-05-14T01:10:08.777Z,2.52
2019-05-14T01:12:41.413Z,2.65
2019-05-14T01:15:14.337Z,2.65
2019-05-14T01:17:46.479Z,2.90
2019-05-14T01:20:18.103Z,2.90
2019-05-14T01:22:51.640Z,3.12
2019-05-14T01:25:23.826Z,2.85
2019-05-14T01:27:56.173Z,3.20
2019-05-14T01:30:27.809Z,3.12
2019-05-14T01:33:01.814Z,3.50
2019-05-14T01:35:33.041Z,3.20
2019-05-14T01:38:04.329Z,3.10
2019-05-14T01:40:35.647Z,3.00
2019-05-14T01:43:07.159Z,3.25
2019-05-14T01:45:38.729Z,3.30
2019-05-14T01:48:11.676Z,3.33
2019-05-14T01:50:43.692Z,3.42
2019-05-14T01:53:15.242Z,3.30
2019-05-14T01:55:47.124Z,3.40
2019-05-14T01:58:19.196Z,3.90
2019-05-14T02:00:52.257Z,3.33
2019-05-14T02:03:24.219Z,3.95
2019-05-14T02:05:56.118Z,3.58
2019-05-14T02:08:27.722Z,3.98
2019-05-14T02:13:25.163Z,3.98
2019-05-14T02:15:56.782Z,3.80
2019-05-14T02:18:30.704Z,3.90
2019-05-14T02:21:01.894Z,4.08
2019-05-14T02:23:33.465Z,4.25
2019-05-14T02:26:05.505Z,4.50
2019-05-14T02:28:37.868Z,3.70
2019-05-14T02:31:09.729Z,4.22
2019-05-14T02:33:41.020Z,4.20
2019-05-14T02:36:13.124Z,4.08
2019-05-14T02:38:44.918Z,4.60
2019-05-14T02:41:19.682Z,4.15
2019-05-14T02:43:50.580Z,4.00
2019-05-14T02:46:22.279Z,4.30
2019-05-14T02:48:54.333Z,4.40
2019-05-14T02:51:26.236Z,4.35
2019-05-14T02:53:59.137Z,4.10
2019-05-14T02:56:31.340Z,3.62
2019-05-14T02:59:05.910Z,4.47
2019-05-14T03:01:40.390Z,4.10
2019-05-14T03:04:12.048Z,3.92
2019-05-14T03:06:43.792Z,3.75
2019-05-14T03:09:15.124Z,3.45
2019-05-14T03:11:48.589Z,5.25
2019-05-14T03:14:20.516Z,4.10
2019-05-14T03:16:52.608Z,4.90
2019-05-14T03:19:24.173Z,3.92
2019-05-14T03:21:55.767Z,5.12
2019-05-14T03:24:28.900Z,5.47
2019-05-14T03:27:00.604Z,5.20
2019-05-14T03:29:32.479Z,5.25
2019-05-14T03:32:04.117Z,5.37
2019-05-14T03:34:42.077Z,5.58
2019-05-14T03:37:13.008Z,5.60
2019-05-14T03:39:42.130Z,5.65
2019-05-14T03:42:13.913Z,5.92
2019-05-14T03:44:46.258Z,5.75
2019-05-14T03:47:19.733Z,6.17
2019-05-14T03:49:51.752Z,5.47
2019-05-14T03:52:23.540Z,5.30
2019-05-14T03:54:55.548Z,5.80
2019-05-14T03:57:29.161Z,6.33
2019-05-14T04:00:00.595Z,5.58
2019-05-14T04:02:32.533Z,5.50
2019-05-14T04:05:05.193Z,4.92
2019-05-14T04:07:39.370Z,5.45
2019-05-14T04:10:10.913Z,6.15
2019-05-14T04:12:49.227Z,5.08
2019-05-14T04:15:24.193Z,5.40
2019-05-14T04:17:59.654Z,5.35
2019-05-14T04:20:35.632Z,5.33
2019-05-14T04:23:10.623Z,5.33
2019-05-14T04:25:43.758Z,5.03
2019-05-14T04:28:19.388Z,5.57
2019-05-14T04:30:55.331Z,4.93
2019-05-14T04:33:30.419Z,5.33
2019-05-14T04:36:01.894Z,4.93
2019-05-14T04:38:33.008Z,4.80
2019-05-14T04:41:04.816Z,4.57
2019-05-14T04:43:40.031Z,4.70
2019-05-14T04:46:10.780Z,4.77
2019-05-14T04:48:44.319Z,4.33
2019-05-14T04:51:19.626Z,4.20
2019-05-14T04:53:50.026Z,4.70
2019-05-14T04:56:22.087Z,4.30
2019-05-14T04:58:53.763Z,4.80
2019-05-14T05:01:25.777Z,4.17
2019-05-14T05:03:59.108Z,4.33
2019-05-14T05:06:32.670Z,4.73
2019-05-14T05:09:05.671Z,4.50
2019-05-14T05:11:39.461Z,4.60
2019-05-14T05:14:10.401Z,4.47
2019-05-14T05:16:42.175Z,4.50
2019-05-14T05:19:14.434Z,5.00
2019-05-14T05:21:47.993Z,4.77
2019-05-14T05:24:18.970Z,5.40
2019-05-14T05:26:50.370Z,4.63
2019-05-14T05:29:22.450Z,4.60
2019-05-14T05:31:54.081Z,4.97
2019-05-14T05:34:28.140Z,4.10
2019-05-14T05:36:59.386Z,4.37
2019-05-14T05:39:31.627Z,4.73
2019-05-14T05:42:02.938Z,3.77
2019-05-14T05:44:35.043Z,3.43
2019-05-14T05:47:08.976Z,3.90
2019-05-14T05:49:39.770Z,3.90
2019-05-14T05:52:11.676Z,3.70
2019-05-14T05:54:43.352Z,3.20
2019-05-14T05:57:15.144Z,3.70
2019-05-14T05:59:48.561Z,3.67
2019-05-14T06:02:19.232Z,3.70
2019-05-14T06:04:52.559Z,3.50
2019-05-14T06:07:24.736Z,3.03
2019-05-14T06:09:55.894Z,2.43
2019-05-14T06:12:29.531Z,2.83
2019-05-14T06:15:00.448Z,2.60
2019-05-14T06:17:31.749Z,2.63
2019-05-14T06:20:03.311Z,2.83
2019-05-14T06:22:34.612Z,2.83
2019-05-14T06:25:10.920Z,2.97
2019-05-14T06:27:40.103Z,2.50
2019-05-14T06:30:12.864Z,3.57
2019-05-14T06:32:44.448Z,2.50
2019-05-14T06:35:16.095Z,2.90
2019-05-14T06:37:49.015Z,2.87
2019-05-14T06:40:21.422Z,2.97
2019-05-14T06:42:52.786Z,2.90
2019-05-14T06:45:24.099Z,3.63
2019-05-14T06:47:55.786Z,2.83
2019-05-14T06:50:28.555Z,2.87
2019-05-14T06:53:00.526Z,3.10
2019-05-14T06:55:32.408Z,3.07
2019-05-14T06:58:03.841Z,2.70
2019-05-14T07:00:35.481Z,2.90
2019-05-14T07:03:08.939Z,3.83
2019-05-14T07:05:40.101Z,2.73
2019-05-14T07:08:12.224Z,2.80
2019-05-14T07:10:43.819Z,2.70
2019-05-14T07:13:18.742Z,3.00
2019-05-14T07:15:49.703Z,3.20
2019-05-14T07:18:21.445Z,3.40
2019-05-14T07:20:53.269Z,3.00
2019-05-14T07:23:25.657Z,3.30
2019-05-14T07:25:58.885Z,2.70
2019-05-14T07:28:30.809Z,2.77
2019-05-14T07:31:02.605Z,2.90
2019-05-14T07:33:33.867Z,3.13
2019-05-14T07:36:05.317Z,2.83
2019-05-14T07:38:39.258Z,3.10
2019-05-14T07:41:11.109Z,3.00
2019-05-14T07:43:42.729Z,2.70
2019-05-14T07:46:14.059Z,3.10
2019-05-14T07:49:00.619Z,2.30
2019-05-14T07:51:19.937Z,1.90
2019-05-14T07:53:51.277Z,2.70
2019-05-14T07:56:22.724Z,2.83
2019-05-14T07:58:53.825Z,1.97
2019-05-14T08:01:25.461Z,2.00
2019-05-14T08:04:00.125Z,2.30
2019-05-14T08:06:31.795Z,2.43
2019-05-14T08:09:08.481Z,2.50
2019-05-14T08:11:39.959Z,2.40
2019-05-14T08:14:11.501Z,2.60
2019-05-14T08:16:43.549Z,2.40
2019-05-14T08:19:24.436Z,2.37
2019-05-14T08:21:48.839Z,2.40
2019-05-14T08:24:26.688Z,2.40
2019-05-14T08:26:54.318Z,2.80
2019-05-14T08:29:28.541Z,2.40
2019-05-14T08:31:59.465Z,2.80
2019-05-14T08:34:32.389Z,3.00
2019-05-14T08:37:05.500Z,2.33
2019-05-14T08:39:39.225Z,2.60
2019-05-14T08:42:10.772Z,2.70
2019-05-14T08:44:42.064Z,2.43
2019-05-14T08:47:14.119Z,2.03
2019-05-14T08:49:49.525Z,2.10
2019-05-14T08:52:19.779Z,2.40
2019-05-14T08:55:05.557Z,2.00
2019-05-14T08:57:25.059Z,2.43
2019-05-14T08:59:59.293Z,2.00
2019-05-14T09:02:31.180Z,2.00
2019-05-14T09:05:04.718Z,1.80
2019-05-14T09:07:38.354Z,1.60
2019-05-14T09:10:10.746Z,1.60
2019-05-14T09:12:42.576Z,2.10
2019-05-14T09:15:14.561Z,1.90
2019-05-14T09:17:48.397Z,2.03
2019-05-14T09:20:20.602Z,1.63
2019-05-14T09:22:52.362Z,1.63
2019-05-14T09:25:24.516Z,1.40
2019-05-14T09:27:58.620Z,1.50
2019-05-14T09:30:29.826Z,1.40
2019-05-14T09:33:01.449Z,1.33
2019-05-14T09:35:32.914Z,1.40
2019-05-14T09:38:05.194Z,1.43
2019-05-14T09:40:39.467Z,1.50
2019-05-14T09:43:10.368Z,1.80
2019-05-14T09:45:41.659Z,1.23
2019-05-14T09:48:13.341Z,1.63
2019-05-14T09:50:45.219Z,1.30
2019-05-14T09:53:18.127Z,1.60
2019-05-14T09:55:50.371Z,1.30
2019-05-14T09:58:21.684Z,1.43
2019-05-14T10:00:53.036Z,1.40
2019-05-14T10:03:25.113Z,1.30
2019-05-14T10:05:58.992Z,1.10
2019-05-14T10:08:31.192Z,1.20
2019-05-14T10:11:03.119Z,1.47
2019-05-14T10:13:34.494Z,1.33
2019-05-14T10:16:09.239Z,1.37
2019-05-14T10:18:40.088Z,1.40
2019-05-14T10:21:11.735Z,1.60
2019-05-14T10:23:43.056Z,1.53
2019-05-14T10:26:15.084Z,1.30
2019-05-14T10:28:48.464Z,1.33
2019-05-14T10:31:20.284Z,1.33
2019-05-14T10:33:52.260Z,1.10
2019-05-14T10:36:23.901Z,1.10
2019-05-14T10:38:55.522Z,1.20
2019-05-14T10:41:29.016Z,1.40
2019-05-14T10:44:00.162Z,1.50
2019-05-14T10:46:31.971Z,1.80
2019-05-14T10:49:16.338Z,1.40
2019-05-14T10:51:38.922Z,1.60
2019-05-14T10:54:21.025Z,1.33
2019-05-14T10:56:43.894Z,1.73
2019-05-14T10:59:15.524Z,2.70
2019-05-14T11:01:47.160Z,2.50
2019-05-14T11:04:19.063Z,2.47
2019-05-14T11:06:50.782Z,1.80
2019-05-14T11:09:22.879Z,1.47
2019-05-14T11:11:54.506Z,1.60
2019-05-14T11:14:31.329Z,1.47
2019-05-14T11:16:59.671Z,1.70
2019-05-14T11:19:31.429Z,1.20
2019-05-14T11:22:02.695Z,1.50
2019-05-14T11:24:34.830Z,1.30
2019-05-14T11:27:07.071Z,1.50
2019-05-14T11:29:38.994Z,1.37
2019-05-14T11:32:10.763Z,1.80
2019-05-14T11:34:42.943Z,1.50
2019-05-14T11:37:14.534Z,1.67
2019-05-14T11:39:48.741Z,1.50
2019-05-14T11:42:20.530Z,1.63
2019-05-14T11:44:52.558Z,1.27
2019-05-14T11:47:24.482Z,1.43
2019-05-14T11:49:59.145Z,1.20
2019-05-14T11:52:29.824Z,1.73
2019-05-14T11:55:01.475Z,1.43
2019-05-14T11:57:33.225Z,1.57
2019-05-14T12:00:05.318Z,1.60
2019-05-14T12:02:38.639Z,1.20
2019-05-14T12:05:11.221Z,1.60
2019-05-14T12:07:43.019Z,1.80
2019-05-14T12:10:14.551Z,1.60
2019-05-14T12:12:45.658Z,1.47
2019-05-14T12:15:18.846Z,1.20
2019-05-14T12:17:51.415Z,1.30
2019-05-14T12:20:25.000Z,1.33
2019-05-14T12:22:59.135Z,1.00
2019-05-14T12:25:30.342Z,1.30
2019-05-14T12:28:02.612Z,1.30
2019-05-14T12:30:33.619Z,2.30
2019-05-14T12:33:05.880Z,2.13
2019-05-14T12:35:40.340Z,1.20
2019-05-14T12:38:11.227Z,1.60
2019-05-14T12:40:42.937Z,1.40
2019-05-14T12:43:14.305Z,1.30
2019-05-14T12:45:46.223Z,1.40
2019-05-14T12:48:18.854Z,1.70
2019-05-14T12:50:50.584Z,1.40
2019-05-14T12:53:22.221Z,1.30
2019-05-14T12:55:54.163Z,1.30
2019-05-14T12:58:28.379Z,1.07
2019-05-14T13:00:59.834Z,1.60
2019-05-14T13:03:31.263Z,1.37
2019-05-14T13:06:02.971Z,1.30
2019-05-14T13:08:35.092Z,2.00
2019-05-14T13:11:09.363Z,1.40
2019-05-14T13:13:42.789Z,1.50
2019-05-14T13:16:13.755Z,1.33
2019-05-14T13:18:45.044Z,1.30
2019-05-14T13:21:18.943Z,1.43
2019-05-14T13:23:49.849Z,1.17
2019-05-14T13:26:20.974Z,1.30
2019-05-14T13:28:52.533Z,1.13
2019-05-14T13:31:24.192Z,1.20
2019-05-14T13:33:55.465Z,1.23
2019-05-14T13:36:28.767Z,1.20
2019-05-14T13:39:00.169Z,1.20
2019-05-14T13:41:31.461Z,1.30
2019-05-14T13:44:17.262Z,1.20
2019-05-14T13:46:36.401Z,1.37
2019-05-14T13:49:08.573Z,1.40
2019-05-14T13:51:41.257Z,1.30
2019-05-14T13:54:12.821Z,1.33
2019-05-14T13:56:45.070Z,1.33
2019-05-14T13:59:18.797Z,1.30
2019-05-14T14:01:54.683Z,1.27
2019-05-14T14:04:24.435Z,1.30
2019-05-14T14:06:59.044Z,1.13
2019-05-14T14:09:49.974Z,1.20
2019-05-14T14:12:25.043Z,1.23
2019-05-14T14:14:55.453Z,1.10
2019-05-14T14:17:29.232Z,1.13
2019-05-14T14:20:01.231Z,1.40
2019-05-14T14:22:33.120Z,1.13
2019-05-14T14:25:04.985Z,1.30
2019-05-14T14:27:40.785Z,1.00
2019-05-14T14:30:11.911Z,1.13
2019-05-14T14:32:43.597Z,1.20
2019-05-14T14:35:15.642Z,2.23
2019-05-14T14:37:49.330Z,1.20
2019-05-14T14:40:22.487Z,1.30
2019-05-14T14:42:54.481Z,1.30
2019-05-14T14:45:29.192Z,2.00
2019-05-14T14:48:01.277Z,1.27
2019-05-14T14:50:33.060Z,1.57
2019-05-14T14:53:05.121Z,1.13
2019-05-14T14:55:39.980Z,1.13
2019-05-14T14:58:11.663Z,1.30
2019-05-14T15:00:44.148Z,1.40
2019-05-14T15:03:15.249Z,1.50
2019-05-14T15:05:49.887Z,1.60
2019-05-14T15:08:20.408Z,1.43
2019-05-14T15:10:52.043Z,1.50
2019-05-14T15:13:24.065Z,1.53
2019-05-14T15:15:55.642Z,1.33
2019-05-14T15:18:28.826Z,1.43
2019-05-14T15:21:00.185Z,1.50
2019-05-14T15:23:31.777Z,1.40
2019-05-14T15:26:03.693Z,1.47
2019-05-14T15:28:35.325Z,2.10
2019-05-14T15:31:08.832Z,1.80
2019-05-14T15:33:40.579Z,1.30
2019-05-14T15:36:12.253Z,1.37
2019-05-14T15:38:44.134Z,1.50
2019-05-14T15:41:15.741Z,1.53
2019-05-14T15:43:47.578Z,1.50
2019-05-14T15:46:19.193Z,1.50
2019-05-14T15:48:51.040Z,1.20
2019-05-14T15:51:22.824Z,1.70
2019-05-14T15:54:11.067Z,1.33
2019-05-14T15:56:29.805Z,1.23
2019-05-14T15:59:01.596Z,1.23
2019-05-14T16:01:33.473Z,1.50
2019-05-14T16:04:05.819Z,1.60
2019-05-14T16:06:38.614Z,1.20
2019-05-14T16:09:10.129Z,2.53
2019-05-14T16:11:42.292Z,1.53
2019-05-14T16:14:13.717Z,1.30
2019-05-14T16:16:45.271Z,1.40
2019-05-14T16:19:19.050Z,1.43
2019-05-14T16:21:50.540Z,1.20
2019-05-14T16:24:22.804Z,1.13
2019-05-14T16:26:54.562Z,1.20
2019-05-14T16:29:40.343Z,1.30
2019-05-14T16:31:59.245Z,1.60
2019-05-14T16:34:31.176Z,1.20
2019-05-14T16:37:03.257Z,1.60
2019-05-14T16:39:34.861Z,1.00
2019-05-14T16:42:06.604Z,1.30
2019-05-14T16:44:39.103Z,1.20
2019-05-14T16:47:10.315Z,1.30
2019-05-14T16:49:42.216Z,1.30
2019-05-14T16:52:13.795Z,1.00
2019-05-14T16:54:45.488Z,1.20
2019-05-14T16:57:18.566Z,1.37
2019-05-14T16:59:50.496Z,1.17
2019-05-14T17:02:21.802Z,1.10
2019-05-14T17:04:54.293Z,1.20
2019-05-14T17:07:25.842Z,1.27
2019-05-14T17:09:58.169Z,1.20
2019-05-14T17:12:48.389Z,1.40
2019-05-14T17:15:05.434Z,1.10
2019-05-14T17:17:37.238Z,1.40
2019-05-14T17:20:09.548Z,1.00
2019-05-14T17:22:41.095Z,1.10
2019-05-14T17:25:26.244Z,0.90
2019-05-14T17:27:48.585Z,1.20
2019-05-14T17:30:20.499Z,1.30
2019-05-14T17:32:51.877Z,1.20
2019-05-14T17:35:23.184Z,1.00
2019-05-14T17:37:54.520Z,1.20
2019-05-14T17:40:26.170Z,1.10
2019-05-14T17:42:59.243Z,1.60
2019-05-14T17:45:30.999Z,1.00
2019-05-14T17:48:02.362Z,1.23
2019-05-14T17:50:33.741Z,1.10
2019-05-14T17:53:05.497Z,1.30
2019-05-14T17:55:46.553Z,1.20
2019-05-14T17:58:13.232Z,1.27
2019-05-14T18:00:44.332Z,1.10
2019-05-14T18:03:18.268Z,1.33
2019-05-14T18:05:48.316Z,1.30
2019-05-14T18:08:20.157Z,1.30
2019-05-14T18:10:51.772Z,1.57
2019-05-14T18:13:23.626Z,1.43
2019-05-14T18:15:57.947Z,1.00
2019-05-14T18:18:29.253Z,1.43
2019-05-14T18:21:00.958Z,0.93
2019-05-14T18:23:32.526Z,1.33
2019-05-14T18:26:08.896Z,1.20
2019-05-14T18:28:38.584Z,1.00
2019-05-14T18:31:10.256Z,1.60
2019-05-14T18:33:41.849Z,1.30
2019-05-14T18:36:13.543Z,1.20
2019-05-14T18:38:45.742Z,1.40
2019-05-14T18:41:18.837Z,1.57
2019-05-14T18:43:50.098Z,1.70
2019-05-14T18:46:22.278Z,1.40
2019-05-14T18:48:54.636Z,1.30
2019-05-14T18:51:28.756Z,1.37
2019-05-14T18:54:00.348Z,1.27
2019-05-14T18:56:31.899Z,1.10
2019-05-14T18:59:03.598Z,1.47
2019-05-14T19:01:35.047Z,1.13
2019-05-14T19:04:08.231Z,1.07
2019-05-14T19:06:39.785Z,1.17
2019-05-14T19:09:11.711Z,1.10
2019-05-14T19:11:43.350Z,1.20
2019-05-14T19:14:15.555Z,0.87
2019-05-14T19:16:48.925Z,1.50
2019-05-14T19:19:20.970Z,1.10
2019-05-14T19:21:53.339Z,1.13
2019-05-14T19:24:25.381Z,1.10
2019-05-14T19:26:59.353Z,1.37
2019-05-14T19:29:30.323Z,1.03
2019-05-14T19:32:02.201Z,1.40
2019-05-14T19:34:33.780Z,1.23
2019-05-14T19:37:05.133Z,1.20
2019-05-14T19:39:38.542Z,1.10
2019-05-14T19:42:10.476Z,1.20
2019-05-14T19:44:42.102Z,1.20
2019-05-14T19:47:13.929Z,1.50
2019-05-14T19:49:45.895Z,1.27
2019-05-14T19:52:17.597Z,1.30
2019-05-14T19:54:49.541Z,1.30
2019-05-14T19:57:20.838Z,1.07
2019-05-14T19:59:53.051Z,1.07
2019-05-14T20:02:24.631Z,1.20
2019-05-14T20:04:55.888Z,1.33
2019-05-14T20:07:28.023Z,1.50
2019-05-14T20:10:00.167Z,1.10
2019-05-14T20:12:31.888Z,0.98
2019-05-14T20:15:03.424Z,1.60
2019-05-14T20:17:38.133Z,1.10
2019-05-14T20:20:10.377Z,1.10
2019-05-14T20:22:41.991Z,1.17
2019-05-14T20:25:13.648Z,1.35
2019-05-14T20:27:47.634Z,1.12
2019-05-14T20:30:19.880Z,1.20
2019-05-14T20:32:51.690Z,2.00
2019-05-14T20:35:33.642Z,1.82
2019-05-14T20:37:58.453Z,1.15
2019-05-14T20:40:29.915Z,1.30
2019-05-14T20:43:01.644Z,1.20
2019-05-14T20:45:33.337Z,1.20
2019-05-14T20:48:05.194Z,1.45
2019-05-14T20:50:38.382Z,1.40
2019-05-14T20:53:10.426Z,1.50
2019-05-14T20:55:41.820Z,1.40
2019-05-14T20:58:13.634Z,1.52
2019-05-14T21:00:45.030Z,1.47
2019-05-14T21:03:18.527Z,1.75
2019-05-14T21:05:50.200Z,1.37
2019-05-14T21:08:21.528Z,1.62
2019-05-14T21:10:52.628Z,1.40
2019-05-14T21:13:24.201Z,1.50
2019-05-14T21:15:56.300Z,2.10
2019-05-14T21:18:35.133Z,2.70
2019-05-14T21:21:01.515Z,2.77
2019-05-14T21:23:33.396Z,2.83
2019-05-14T21:26:05.028Z,2.90
2019-05-14T21:28:39.317Z,2.98
2019-05-14T21:31:10.775Z,3.02
2019-05-14T21:33:42.353Z,3.22
2019-05-14T21:36:14.365Z,2.90
2019-05-14T21:38:45.402Z,3.30
2019-05-14T21:41:20.181Z,3.85
2019-05-14T21:43:50.000Z,3.37
2019-05-14T21:46:21.344Z,2.77
2019-05-14T21:48:53.919Z,2.10
2019-05-14T21:51:25.221Z,3.25
2019-05-14T21:53:58.818Z,2.40
2019-05-14T21:56:30.479Z,2.70
2019-05-14T21:59:02.603Z,2.35
2019-05-14T22:01:34.627Z,2.35
2019-05-14T22:04:08.746Z,2.90
2019-05-14T22:06:41.194Z,2.95
2019-05-14T22:09:14.557Z,3.00
2019-05-14T22:11:48.459Z,3.12
2019-05-14T22:14:19.783Z,4.05
2019-05-14T22:16:51.145Z,3.42
2019-05-14T22:19:22.490Z,3.90
2019-05-14T22:21:54.261Z,3.30
2019-05-14T22:24:28.527Z,2.83
2019-05-14T22:26:59.492Z,2.42
2019-05-14T22:29:31.377Z,2.60
2019-05-14T22:32:03.311Z,2.20
2019-05-14T22:34:34.348Z,2.27
2019-05-14T22:37:05.887Z,2.00
2019-05-14T22:39:39.063Z,1.60
2019-05-14T22:42:11.448Z,1.57
2019-05-14T22:44:43.325Z,1.72
2019-05-14T22:47:14.478Z,1.32
2019-05-14T22:49:48.490Z,1.50
2019-05-14T22:52:20.095Z,1.40
2019-05-14T22:54:51.181Z,1.30
2019-05-14T22:57:22.792Z,1.40
2019-05-14T22:59:54.995Z,1.50
2019-05-14T23:02:28.460Z,1.30
2019-05-14T23:05:00.109Z,1.82
2019-05-14T23:07:32.316Z,1.72
2019-05-14T23:10:03.659Z,1.30
2019-05-14T23:12:35.044Z,1.47
2019-05-14T23:15:07.131Z,1.50
2019-05-14T23:17:39.131Z,1.80
2019-05-14T23:20:10.894Z,1.55
2019-05-14T23:22:43.131Z,1.30
2019-05-14T23:25:15.093Z,1.45
2019-05-14T23:27:48.124Z,1.60
2019-05-14T23:30:42.281Z,1.62
2019-05-14T23:33:13.706Z,1.22
2019-05-14T23:35:48.187Z,1.30
2019-05-14T23:38:19.627Z,1.42
2019-05-14T23:40:50.946Z,1.70
2019-05-14T23:43:22.806Z,1.65
2019-05-14T23:45:54.382Z,1.60
2019-05-14T23:48:25.886Z,1.82
2019-05-14T23:50:58.482Z,1.47
2019-05-14T23:53:29.809Z,1.52
2019-05-14T23:56:01.388Z,1.57
2019-05-14T23:58:33.534Z,1.32
